Primda, Czech Republic

3:11 AM CET on January 27, 2015 (GMT +0100)
Ellenfeld | Change Station
CLOSE
Current Station
Personal Weather Station
Location: Bärnau, BAYERN
Elevation: 2175 ft
Nearby Weather Stations

Elev 2175 ft 49.84 °N, 12.43 °E | Updated 12 seconds ago

Light Rain
Light Rain Snow
29.1 °F
Feels Like 29 °F
N
1.3
Wind Variable Wind from West
Gusts 2.5 mph

Today
High -- | Low -- °F
--% Chance of Precip.
Yesterday
High -- | Low -- °F
Precip. -- in
7:49 AM 4:55 PM
Waxing Crescent, 49% visible
Pressure 29.95 in
Visibility 6.2 miles
Clouds Few 700 ft
Mostly Cloudy 2800 ft
Overcast 3700 ft
Windchill 29 °F
Dew Point 27 °F
Humidity 92%
Rainfall 0.00 in
Snow Depth Not available.
UV 0.0 out of 12
Pollen Not available.
Air Quality Not available.
Flu Activity Not available.
SPECI LKLN 270206Z AUTO 25004KT 9999 -RASN FEW007 BKN028 OVC037 00/M00 Q1014 RERASN

More Conditions Fewer Conditions

Pressure 29.95 in
Visibility 6.2 miles
Clouds Few 700 ft
Mostly Cloudy 2800 ft
Overcast 3700 ft
Windchill 29 °F
Dew Point 27 °F
Humidity 92%
Rainfall 0.00 in
Snow Depth Not available.
UV 0.0 out of 12
Pollen Not available.
Air Quality Not available.
Flu Activity Not available.
SPECI LKLN 270206Z AUTO 25004KT 9999 -RASN FEW007 BKN028 OVC037 00/M00 Q1014 RERASN

More Conditions Fewer Conditions

10-Day Weather Forecast

Almanac

Astronomy

Jan. 27, 2015 Rise Set
Actual Time
Civil Twilight
Nautical Twilight
Astronomical Twilight
Moon
Length of Visible Light
Length of Day
Tomorrow will be .
, % of the Moon is Illuminated

Today's Extremes

Country Highs Country Lows

Community

WunderPhotos

Upload Photos

1,790,475 photos uploaded!

WunderBlogs® & News

Nearby

Air Quality

  Air Quality AQ Index Pollutant
Not available.

Snow Depth

Station Depth Elevation

Earthquake Activity

City Distance Mag. Time & Date
Minimum magnitude displayed is 2.5.

Coastal Water Temperatures

Place Temperature

Nearby Weather Stations